Terminal Aerodrome Forecast
Issued by NWS

Home | Current Version | Previous Version | Text Only | Print | Product List | Glossary On
Versions: 1 2 3 4 5 6 7 8 9 10 11 12 13 14
424
FTUS46 KLOX 230537
TAFLGB
TAF
KLGB 230537Z 2306/2406 28007KT P6SM SCT025 SCT040
     FM230800 30008KT P6SM VCSH SCT025 BKN040
     FM231500 32008KT P6SM SCT040
     FM232000 28015G23KT P6SM SCT040
     FM240400 30008KT P6SM SKC=

USA.gov is the U.S. government's official web portal to all federal, state and local government web resources and services.